createdAt,value
2023-05-10T00:04:45.951Z,100982.66
2023-05-10T00:09:48.951Z,100980.82
2023-05-10T00:14:52.058Z,100977.47
2023-05-10T00:19:55.572Z,100978.56
2023-05-10T00:24:58.985Z,100978.64
2023-05-10T00:30:02.120Z,100977.53
2023-05-10T00:35:05.403Z,100976.08
2023-05-10T00:40:08.804Z,100968.87
2023-05-10T00:45:12.730Z,100964.46
2023-05-10T00:50:17.032Z,100967.11
2023-05-10T00:55:21.102Z,100966.91
2023-05-10T01:00:24.104Z,100970.15
2023-05-10T01:05:28.744Z,100969.59
2023-05-10T01:10:32.369Z,100963.65
2023-05-10T01:15:35.913Z,100960.27
2023-05-10T01:20:42.988Z,100956.16
2023-05-10T01:25:46.087Z,100953.87
2023-05-10T01:30:59.751Z,100956.32
2023-05-10T01:36:07.867Z,100953.11
2023-05-10T01:41:16.192Z,100951.13
2023-05-10T01:46:21.863Z,100953.44
2023-05-10T01:51:26.801Z,100952.89
2023-05-10T01:56:32.255Z,100950.61
2023-05-10T02:01:38.047Z,100951.52
2023-05-10T02:06:42.564Z,100955.14
2023-05-10T02:11:45.564Z,100955.30
2023-05-10T02:16:49.640Z,100949.08
2023-05-10T02:21:53.214Z,100950.95
2023-05-10T02:26:59.386Z,100958.96
2023-05-10T02:32:03.362Z,100962.21
2023-05-10T02:37:07.359Z,100953.76
2023-05-10T02:42:14.953Z,100950.70
2023-05-10T02:47:19.390Z,100948.52
2023-05-10T02:52:30.488Z,100941.08
2023-05-10T02:57:35.128Z,100941.31
2023-05-10T03:02:38.166Z,100944.17
2023-05-10T03:07:41.548Z,100946.46
2023-05-10T03:12:50.702Z,100947.34
2023-05-10T03:17:58.665Z,100948.24
2023-05-10T03:23:05.985Z,100945.62
2023-05-10T03:28:10.141Z,100941.42
2023-05-10T03:33:14.480Z,100936.84
2023-05-10T03:38:17.480Z,100931.33
2023-05-10T03:43:20.586Z,100934.27
2023-05-10T03:48:23.485Z,100935.71
2023-05-10T03:53:26.695Z,100940.92
2023-05-10T03:58:29.705Z,100934.88
2023-05-10T04:03:32.778Z,100931.35
2023-05-10T04:08:36.222Z,100937.80
2023-05-10T04:13:39.736Z,100934.29
2023-05-10T04:18:42.845Z,100930.88
2023-05-10T04:23:46.052Z,100935.87
2023-05-10T04:28:49.156Z,100940.63
2023-05-10T04:33:52.670Z,100944.76
2023-05-10T04:38:55.768Z,100941.70
2023-05-10T04:43:58.789Z,100939.39
2023-05-10T04:49:02.293Z,100933.02
2023-05-10T04:54:06.774Z,100928.35
2023-05-10T04:59:10.149Z,100925.33
2023-05-10T05:04:13.041Z,100925.65
2023-05-10T05:09:16.148Z,100921.23
2023-05-10T05:14:19.151Z,100926.67
2023-05-10T05:19:22.150Z,100925.07
2023-05-10T05:24:25.459Z,100923.34
2023-05-10T05:29:28.998Z,100921.52
2023-05-10T05:34:32.085Z,100922.61
2023-05-10T05:39:37.456Z,100925.61
2023-05-10T05:44:40.751Z,100924.77
2023-05-10T05:49:43.858Z,100924.75
2023-05-10T05:54:46.863Z,100923.84
2023-05-10T05:59:49.862Z,100926.14
2023-05-10T06:04:53.071Z,100925.29
2023-05-10T06:09:55.971Z,100925.95
2023-05-10T06:14:58.871Z,100921.86
2023-05-10T06:20:02.144Z,100921.32
2023-05-10T06:25:05.808Z,100920.05
2023-05-10T06:30:13.428Z,100922.45
2023-05-10T06:35:16.935Z,100924.50
2023-05-10T06:40:20.640Z,100918.45
2023-05-10T06:45:23.749Z,100919.80
2023-05-10T06:50:26.998Z,100920.39
2023-05-10T06:55:30.484Z,100926.88
2023-05-10T07:00:33.512Z,100921.04
2023-05-10T07:05:36.804Z,100918.61
2023-05-10T07:10:40.006Z,100917.45
2023-05-10T07:15:43.619Z,100912.48
2023-05-10T07:20:46.962Z,100915.06
2023-05-10T07:25:50.950Z,100915.29
2023-05-10T07:30:54.006Z,100915.76
2023-05-10T07:35:57.005Z,100914.48
2023-05-10T07:40:59.959Z,100918.92
2023-05-10T07:46:03.120Z,100912.77
2023-05-10T07:51:07.715Z,100915.77
2023-05-10T07:56:28.524Z,100914.36
2023-05-10T08:01:33.603Z,100913.69
2023-05-10T08:06:36.682Z,100910.10
2023-05-10T08:11:39.597Z,100916.08
2023-05-10T08:16:42.583Z,100909.30
2023-05-10T08:21:46.108Z,100909.64
2023-05-10T08:26:49.533Z,100899.70
2023-05-10T08:31:52.978Z,100897.89
2023-05-10T08:36:56.033Z,100895.73
2023-05-10T08:42:03.146Z,100899.41
2023-05-10T08:47:10.843Z,100903.05
2023-05-10T08:52:14.630Z,100911.67
2023-05-10T08:57:18.390Z,100907.60
2023-05-10T09:02:21.712Z,100901.85
2023-05-10T09:07:25.009Z,100897.23
2023-05-10T09:12:30.284Z,100901.77
2023-05-10T09:17:35.014Z,100897.89
2023-05-10T09:22:39.048Z,100897.41
2023-05-10T09:27:43.203Z,100894.59
2023-05-10T09:32:47.657Z,100894.22
2023-05-10T09:37:52.449Z,100883.81
2023-05-10T09:42:57.189Z,100880.42
2023-05-10T09:48:01.993Z,100885.77
2023-05-10T09:53:05.134Z,100876.58
2023-05-10T09:58:12.021Z,100885.20
2023-05-10T10:03:16.490Z,100870.23
2023-05-10T10:08:19.592Z,100857.48
2023-05-10T10:13:22.713Z,100857.80
2023-05-10T10:18:28.414Z,100847.16
2023-05-10T10:23:31.769Z,100841.56
2023-05-10T10:28:37.747Z,100836.09
2023-05-10T10:33:53.544Z,100831.81
2023-05-10T10:39:00.868Z,100823.11
2023-05-10T10:44:23.469Z,100818.78
2023-05-10T10:49:26.620Z,100814.08
2023-05-10T10:54:29.779Z,100802.93
2023-05-10T10:59:32.932Z,100800.01
2023-05-10T11:04:47.764Z,100796.48
2023-05-10T11:09:51.133Z,100796.33
2023-05-10T11:14:58.426Z,100787.36
2023-05-10T11:20:08.695Z,100784.61
2023-05-10T11:25:12.332Z,100777.01
2023-05-10T11:30:16.586Z,100776.44
2023-05-10T11:35:19.865Z,100770.04
2023-05-10T11:40:24.920Z,100772.99
2023-05-10T11:45:29.318Z,100768.33
2023-05-10T11:50:32.707Z,100759.41
2023-05-10T11:55:35.867Z,100760.20
2023-05-10T12:00:39.178Z,100750.59
2023-05-10T12:05:43.246Z,100755.87
2023-05-10T12:10:46.409Z,100753.36
2023-05-10T12:15:49.418Z,100753.63
2023-05-10T12:20:55.793Z,100756.95
2023-05-10T12:26:04.017Z,100754.89
2023-05-10T12:31:07.643Z,100750.63
2023-05-10T12:36:11.359Z,100751.47
2023-05-10T12:41:16.143Z,100746.12
2023-05-10T12:46:20.159Z,100752.17
2023-05-10T12:51:24.059Z,100750.77
2023-05-10T12:56:27.286Z,100751.25
2023-05-10T13:01:30.324Z,100751.98
2023-05-10T13:06:33.368Z,100742.30
2023-05-10T13:11:36.378Z,100744.70
2023-05-10T13:16:39.396Z,100742.56
2023-05-10T13:21:42.683Z,100738.57
2023-05-10T13:26:46.109Z,100734.27
2023-05-10T13:31:50.666Z,100733.25
2023-05-10T13:36:55.084Z,100724.63
2023-05-10T13:41:58.085Z,100722.66
2023-05-10T13:47:01.106Z,100719.91
2023-05-10T13:52:08.202Z,100715.21
2023-05-10T13:57:13.883Z,100712.40
2023-05-10T14:02:17.268Z,100709.27
2023-05-10T14:07:20.393Z,100712.33
2023-05-10T14:12:23.576Z,100708.30
2023-05-10T14:17:26.694Z,100705.61
2023-05-10T14:22:30.214Z,100704.95
2023-05-10T14:27:33.621Z,100702.48
2023-05-10T14:32:37.981Z,100704.00
2023-05-10T14:37:41.769Z,100706.73
2023-05-10T14:42:45.188Z,100703.32
2023-05-10T14:47:49.030Z,100702.61
2023-05-10T14:52:52.307Z,100700.66
2023-05-10T14:57:55.929Z,100697.35
2023-05-10T15:02:59.082Z,100698.80
2023-05-10T15:08:02.563Z,100695.09
2023-05-10T15:13:06.284Z,100695.58
2023-05-10T15:18:12.316Z,100693.52
2023-05-10T15:23:15.344Z,100689.86
2023-05-10T15:28:18.561Z,100686.95
2023-05-10T15:33:22.286Z,100681.90
2023-05-10T15:38:25.694Z,100686.77
2023-05-10T15:43:28.945Z,100688.30
2023-05-10T15:48:32.620Z,100684.11
2023-05-10T15:53:36.442Z,100679.95
2023-05-10T15:58:39.949Z,100677.63
2023-05-10T16:03:43.366Z,100679.59
2023-05-10T16:08:46.378Z,100676.03
2023-05-10T16:13:49.477Z,100681.35
2023-05-10T16:18:53.169Z,100676.48
2023-05-10T16:23:56.813Z,100679.40
2023-05-10T16:28:59.821Z,100677.00
2023-05-10T16:34:03.341Z,100676.64
2023-05-10T16:39:07.060Z,100681.58
2023-05-10T16:44:11.393Z,100684.60
2023-05-10T16:49:14.904Z,100685.20
2023-05-10T16:54:19.050Z,100691.46
2023-05-10T16:59:22.664Z,100691.27
2023-05-10T17:04:25.777Z,100694.52
2023-05-10T17:09:32.182Z,100696.02
2023-05-10T17:14:36.002Z,100696.82
2023-05-10T17:19:39.616Z,100703.19
2023-05-10T17:24:45.351Z,100718.03
2023-05-10T17:29:48.988Z,100722.05
2023-05-10T17:34:52.395Z,100725.29
2023-05-10T17:39:55.902Z,100731.89
2023-05-10T17:44:59.932Z,100735.33
2023-05-10T17:50:04.387Z,100739.17
2023-05-10T17:55:09.139Z,100739.50
2023-05-10T18:00:13.053Z,100745.44
2023-05-10T18:05:16.985Z,100751.05
2023-05-10T18:10:21.198Z,100756.58
2023-05-10T18:15:26.255Z,100760.24
2023-05-10T18:20:29.765Z,100758.13
2023-05-10T18:25:33.899Z,100761.65
2023-05-10T18:30:37.806Z,100767.25
2023-05-10T18:35:41.448Z,100770.70
2023-05-10T18:40:44.941Z,100778.55
2023-05-10T18:45:49.056Z,100786.52
2023-05-10T18:50:52.708Z,100794.27
2023-05-10T18:55:57.970Z,100798.03
2023-05-10T19:01:01.585Z,100800.00
2023-05-10T19:06:05.182Z,100799.77
2023-05-10T19:11:08.802Z,100803.75
2023-05-10T19:16:15.216Z,100808.39
2023-05-10T19:21:18.480Z,100810.66
2023-05-10T19:26:23.386Z,100808.16
2023-05-10T19:31:27.320Z,100809.33
2023-05-10T19:36:32.004Z,100811.27
2023-05-10T19:41:36.703Z,100817.99
2023-05-10T19:46:40.485Z,100823.31
2023-05-10T19:51:45.099Z,100826.80
2023-05-10T19:56:48.824Z,100829.47
2023-05-10T20:01:52.233Z,100837.31
2023-05-10T20:06:56.169Z,100843.91
2023-05-10T20:11:59.914Z,100846.26
2023-05-10T20:17:03.738Z,100844.45
2023-05-10T20:22:09.712Z,100849.11
2023-05-10T20:27:18.147Z,100848.05
2023-05-10T20:32:21.657Z,100846.70
2023-05-10T20:37:25.312Z,100849.84
2023-05-10T20:42:28.675Z,100852.98
2023-05-10T20:47:32.942Z,100852.09
2023-05-10T20:52:36.015Z,100855.73
2023-05-10T20:57:39.921Z,100858.82
2023-05-10T21:02:45.246Z,100863.41
2023-05-10T21:07:49.600Z,100864.41
2023-05-10T21:12:52.761Z,100863.70
2023-05-10T21:17:56.000Z,100865.03
2023-05-10T21:22:59.271Z,100863.22
2023-05-10T21:28:02.344Z,100864.65
2023-05-10T21:33:05.460Z,100864.02
2023-05-10T21:38:09.803Z,100867.18
2023-05-10T21:43:12.905Z,100866.20
2023-05-10T21:48:15.976Z,100871.61
2023-05-10T21:53:19.006Z,100869.96
2023-05-10T21:58:22.547Z,100871.80
2023-05-10T22:03:26.654Z,100874.30
2023-05-10T22:08:29.955Z,100876.72
2023-05-10T22:13:32.955Z,100878.30
2023-05-10T22:18:36.738Z,100884.65
2023-05-10T22:23:39.784Z,100886.59
2023-05-10T22:28:42.886Z,100888.15
2023-05-10T22:33:45.994Z,100891.23
2023-05-10T22:38:48.997Z,100891.97
2023-05-10T22:43:52.004Z,100894.80
2023-05-10T22:48:55.452Z,100899.02
2023-05-10T22:53:58.418Z,100900.08
2023-05-10T22:59:01.534Z,100900.79
2023-05-10T23:04:04.639Z,100899.94
2023-05-10T23:09:08.248Z,100898.45
2023-05-10T23:14:11.249Z,100902.05
2023-05-10T23:19:14.093Z,100900.95
2023-05-10T23:24:17.868Z,100905.89
2023-05-10T23:29:20.771Z,100903.94
2023-05-10T23:34:23.770Z,100906.88
2023-05-10T23:39:27.254Z,100909.36
2023-05-10T23:44:30.299Z,100913.63
2023-05-10T23:49:33.303Z,100916.17
2023-05-10T23:54:36.404Z,100916.25
2023-05-10T23:59:39.329Z,100918.70
